Time;durP1;ratioP1;P1;durP2;ratioP2;P2;SDS_P1;SDS_P2;PMS_P1;PMS_P2;Temp;Humidity;BMP_temperature;BMP_pressure;BME280_temperature;BME280_humidity;BME280_pressure;Samples;Min_cycle;Max_cycle;Signal;HPM_P1;HPM_P2
2022/12/18 00:02:08;;;;;;;65.47;39.10;;;;;;;-4.40;86.61;102715.53;5055647;28;20025;-67
2022/12/18 00:04:36;;;;;;;68.77;39.70;;;;;;;-4.37;86.34;102713.03;5054103;28;20040;-67
2022/12/18 00:07:02;;;;;;;64.40;40.03;;;;;;;-4.50;86.45;102713.50;5055783;28;20060;-67
2022/12/18 00:09:28;;;;;;;67.37;41.07;;;;;;;-4.54;86.69;102717.72;5055141;28;20082;-66
2022/12/18 00:11:54;;;;;;;67.20;39.97;;;;;;;-4.56;86.21;102727.19;5044486;28;20041;-67
2022/12/18 00:14:20;;;;;;;64.63;39.33;;;;;;;-4.63;86.14;102718.34;5034956;28;20480;-66
2022/12/18 00:16:46;;;;;;;69.47;40.60;;;;;;;-4.63;86.76;102722.66;5035356;28;20029;-67
2022/12/18 00:19:13;;;;;;;69.57;41.10;;;;;;;-4.66;87.70;102720.84;5034615;28;20080;-67
2022/12/18 00:21:39;;;;;;;62.70;38.10;;;;;;;-4.58;87.75;102711.56;5038272;28;20025;-67
2022/12/18 00:24:05;;;;;;;70.93;40.03;;;;;;;-4.65;87.47;102713.94;5045341;28;20074;-66
2022/12/18 00:26:33;;;;;;;64.90;38.80;;;;;;;-4.69;86.67;102697.41;5062980;28;20029;-67
2022/12/18 00:29:04;;;;;;;66.07;39.87;;;;;;;-4.63;87.52;102684.59;5050241;28;20469;-67
2022/12/18 00:31:30;;;;;;;67.03;38.40;;;;;;;-4.59;87.62;102678.69;5033664;28;20032;-67
2022/12/18 00:33:57;;;;;;;60.73;36.83;;;;;;;-4.68;87.18;102667.13;5049544;28;20028;-66
2022/12/18 00:36:29;;;;;;;64.77;37.83;;;;;;;-4.61;87.31;102684.66;5053568;28;20087;-66
2022/12/18 00:38:57;;;;;;;66.03;38.60;;;;;;;-4.66;87.52;102675.84;5052392;28;20029;-67
2022/12/18 00:44:11;;;;;;;67.97;39.20;;;;;;;-4.73;86.71;102674.78;5052849;28;20098;-66
2022/12/18 00:46:36;;;;;;;60.67;38.73;;;;;;;-4.78;86.60;102671.16;5054721;28;20469;-66
2022/12/18 00:49:04;;;;;;;62.10;37.40;;;;;;;-4.79;86.46;102679.81;5053114;28;20115;-67
2022/12/18 00:51:32;;;;;;;64.30;37.47;;;;;;;-4.85;86.42;102677.91;5051302;28;20069;-67
2022/12/18 00:53:57;;;;;;;66.47;39.47;;;;;;;-4.85;87.31;102664.06;5053940;28;20029;-67
2022/12/18 00:56:23;;;;;;;63.10;36.93;;;;;;;-4.82;87.04;102666.75;5052821;28;20115;-67
2022/12/18 00:58:51;;;;;;;65.53;37.00;;;;;;;-4.89;86.88;102677.75;5054374;28;20491;-67
2022/12/18 01:01:17;;;;;;;62.40;37.80;;;;;;;-4.92;86.87;102677.66;5053524;28;20033;-67
2022/12/18 01:03:44;;;;;;;63.13;38.37;;;;;;;-4.92;87.14;102682.84;5053260;28;20506;-67
2022/12/18 01:06:11;;;;;;;61.07;37.43;;;;;;;-4.90;87.31;102688.97;5053171;28;20380;-67
2022/12/18 01:08:40;;;;;;;62.67;37.73;;;;;;;-4.87;86.84;102679.56;5052706;28;20498;-66
2022/12/18 01:11:11;;;;;;;59.40;36.47;;;;;;;-4.89;86.85;102685.53;5050192;28;20476;-67
2022/12/18 01:13:40;;;;;;;59.93;37.27;;;;;;;-4.86;87.08;102690.81;5049450;28;20055;-67
2022/12/18 01:16:11;;;;;;;56.97;35.85;;;;;;;-4.89;86.49;102693.31;5063009;28;20542;-66
2022/12/18 01:18:37;;;;;;;61.40;36.53;;;;;;;-4.90;86.96;102700.22;5065322;28;20108;-67
2022/12/18 01:21:15;;;;;;;64.33;38.83;;;;;;;-4.86;87.41;102701.19;5050664;28;20122;-67
2022/12/18 01:23:43;;;;;;;62.93;37.37;;;;;;;-4.88;87.87;102695.97;5053248;28;20021;-67
2022/12/18 01:26:16;;;;;;;63.47;37.60;;;;;;;-4.84;87.65;102695.22;5053747;28;20400;-66
2022/12/18 01:28:43;;;;;;;59.07;35.37;;;;;;;-4.86;87.33;102706.38;5053647;28;20033;-66
2022/12/18 01:31:16;;;;;;;64.53;38.13;;;;;;;-4.88;87.18;102701.16;5053124;28;20369;-67
2022/12/18 01:33:42;;;;;;;62.23;37.90;;;;;;;-4.90;87.19;102697.63;5052710;28;20036;-66
2022/12/18 01:36:08;;;;;;;58.57;37.77;;;;;;;-4.86;87.18;102696.00;5052490;28;20028;-66
2022/12/18 01:38:36;;;;;;;60.87;37.83;;;;;;;-4.88;87.89;102688.19;5051847;28;20052;-66
2022/12/18 01:41:02;;;;;;;59.20;35.53;;;;;;;-4.98;87.31;102678.34;5051587;28;20168;-66
2022/12/18 01:43:48;;;;;;;57.63;36.23;;;;;;;-4.96;87.97;102686.19;5052377;28;20029;-66
2022/12/18 01:46:17;;;;;;;56.93;34.60;;;;;;;-4.94;87.73;102687.09;5052488;28;20455;-66
2022/12/18 01:48:47;;;;;;;60.05;35.67;;;;;;;-4.92;88.00;102688.03;5051863;28;20118;-67
2022/12/18 01:51:14;;;;;;;55.70;34.67;;;;;;;-4.87;88.28;102689.94;5036871;28;20411;-66
2022/12/18 01:53:41;;;;;;;57.60;34.53;;;;;;;-4.92;87.88;102693.22;5046729;28;20116;-67
2022/12/18 01:56:08;;;;;;;61.60;36.73;;;;;;;-4.94;87.76;102685.41;5052781;28;20068;-67
2022/12/18 01:58:49;;;;;;;54.67;35.30;;;;;;;-4.94;87.62;102684.50;5051348;28;20021;-67
2022/12/18 02:01:14;;;;;;;51.93;32.03;;;;;;;-4.99;87.76;102686.97;5046684;28;20037;-66
2022/12/18 02:03:44;;;;;;;53.87;34.73;;;;;;;-5.02;87.88;102677.38;5051838;28;20086;-66
2022/12/18 02:06:19;;;;;;;55.85;33.58;;;;;;;-5.01;87.75;102675.66;5053300;28;20021;-67
2022/12/18 02:09:02;;;;;;;53.37;33.63;;;;;;;-5.04;87.60;102675.56;5052961;28;20024;-66
2022/12/18 02:11:43;;;;;;;54.50;32.67;;;;;;;-5.07;87.31;102670.28;5052966;28;20503;-66
2022/12/18 02:14:16;;;;;;;56.57;33.10;;;;;;;-5.11;87.57;102669.34;5052519;28;20115;-66
2022/12/18 02:16:47;;;;;;;51.53;33.27;;;;;;;-5.10;87.73;102673.66;5051586;28;20053;-66
2022/12/18 02:19:33;;;;;;;54.43;33.40;;;;;;;-5.15;87.81;102662.28;5049998;28;20033;-67
2022/12/18 02:22:17;;;;;;;52.03;32.83;;;;;;;-5.09;88.22;102671.94;5032898;28;20041;-66
2022/12/18 02:24:58;;;;;;;51.93;33.60;;;;;;;-5.14;87.81;102663.19;5032409;28;20026;-66
2022/12/18 02:27:24;;;;;;;52.57;33.00;;;;;;;-5.13;87.59;102673.59;5032907;28;20037;-66
2022/12/18 02:29:56;;;;;;;51.43;34.17;;;;;;;-5.10;87.88;102672.78;5033794;28;20082;-66
2022/12/18 02:32:27;;;;;;;58.03;33.80;;;;;;;-5.15;87.46;102676.94;5034199;28;20026;-66
2022/12/18 02:34:56;;;;;;;56.13;33.63;;;;;;;-5.12;87.60;102675.31;5052504;28;20057;-67
2022/12/18 02:37:23;;;;;;;50.10;32.50;;;;;;;-5.22;87.38;102665.50;5052653;28;20487;-67
2022/12/18 02:39:51;;;;;;;52.67;31.13;;;;;;;-5.20;87.25;102669.06;5050944;28;20063;-67
2022/12/18 02:42:18;;;;;;;50.10;32.13;;;;;;;-5.27;87.17;102659.31;5052609;28;20570;-67
2022/12/18 02:44:46;;;;;;;49.90;33.00;;;;;;;-5.21;87.20;102661.22;5051264;28;20032;-67
2022/12/18 02:47:16;;;;;;;48.07;31.20;;;;;;;-5.18;87.57;102654.41;5052743;28;20032;-66
2022/12/18 02:49:57;;;;;;;52.13;33.07;;;;;;;-5.12;86.80;102648.50;5035247;28;20039;-66
2022/12/18 02:52:57;;;;;;;53.97;32.83;;;;;;;-5.16;87.15;102642.38;5039445;28;20025;-66
2022/12/18 02:55:38;;;;;;;49.05;30.17;;;;;;;-5.18;86.77;102643.16;5051333;28;20028;-67
2022/12/18 02:58:31;;;;;;;49.73;29.63;;;;;;;-5.17;86.82;102643.22;5051651;28;20047;-67
2022/12/18 03:01:09;;;;;;;51.60;29.93;;;;;;;-5.16;87.14;102644.09;5032044;28;20033;-66
2022/12/18 03:03:41;;;;;;;49.80;30.70;;;;;;;-5.22;87.02;102649.09;5032000;28;20032;-66
2022/12/18 03:06:16;;;;;;;45.60;28.90;;;;;;;-5.26;86.84;102641.22;5032211;28;20480;-66
2022/12/18 03:08:46;;;;;;;47.87;29.63;;;;;;;-5.29;86.76;102633.34;5040754;28;20060;-67
2022/12/18 03:11:13;;;;;;;43.47;28.23;;;;;;;-5.32;86.57;102622.88;5052209;28;20029;-66
2022/12/18 03:13:55;;;;;;;46.40;29.53;;;;;;;-5.29;86.47;102627.28;5052044;28;20039;-66
2022/12/18 03:16:33;;;;;;;42.47;27.93;;;;;;;-5.27;86.70;102629.06;5051754;28;20068;-66
2022/12/18 03:19:11;;;;;;;43.83;29.13;;;;;;;-5.28;86.49;102632.50;5051505;28;20036;-67
2022/12/18 03:21:49;;;;;;;44.17;29.63;;;;;;;-5.25;86.73;102627.41;5051650;28;20025;-66
2022/12/18 03:24:17;;;;;;;45.90;29.27;;;;;;;-5.32;86.28;102629.78;5051414;28;20025;-67
2022/12/18 03:26:46;;;;;;;43.53;27.83;;;;;;;-5.34;86.69;102627.13;5051152;28;20435;-66
2022/12/18 03:29:18;;;;;;;43.63;28.55;;;;;;;-5.35;86.67;102625.38;5051506;28;20035;-66
2022/12/18 03:31:51;;;;;;;40.87;27.07;;;;;;;-5.32;86.72;102627.19;5051997;28;20039;-66
2022/12/18 03:34:23;;;;;;;42.40;27.70;;;;;;;-5.38;86.27;102640.84;5051767;28;20395;-66
2022/12/18 03:36:51;;;;;;;40.63;27.27;;;;;;;-5.41;86.42;102637.25;5051275;28;20029;-67
2022/12/18 03:39:16;;;;;;;39.10;27.57;;;;;;;-5.40;86.21;102633.84;5049444;28;20033;-66
2022/12/18 03:42:15;;;;;;;43.17;26.63;;;;;;;-5.42;86.82;102632.91;5050608;28;20446;-66
2022/12/18 03:45:04;;;;;;;40.50;27.37;;;;;;;-5.41;86.47;102627.78;5039324;28;20098;-66
2022/12/18 03:47:42;;;;;;;46.55;27.50;;;;;;;-5.48;86.52;102631.00;5050922;28;20478;-66
2022/12/18 03:50:17;;;;;;;40.87;26.57;;;;;;;-5.48;86.54;102623.22;5063890;28;20476;-66
2022/12/18 03:52:51;;;;;;;39.70;25.80;;;;;;;-5.49;86.26;102618.88;5066956;28;20029;-66
2022/12/18 03:55:19;;;;;;;41.00;26.20;;;;;;;-5.44;86.76;102617.31;5070407;28;20028;-66
2022/12/18 03:57:46;;;;;;;38.97;26.13;;;;;;;-5.47;86.70;102609.44;5069173;28;20391;-66
2022/12/18 04:00:17;;;;;;;43.97;26.77;;;;;;;-5.53;86.10;102601.44;5063953;28;20074;-66
2022/12/18 04:02:51;;;;;;;40.97;26.52;;;;;;;-5.49;86.02;102595.53;5069249;28;20394;-66
2022/12/18 04:05:20;;;;;;;39.40;26.33;;;;;;;-5.55;86.45;102595.34;5068692;28;20456;-66
2022/12/18 04:07:48;;;;;;;40.63;27.03;;;;;;;-5.62;85.77;102583.88;5060515;28;20032;-66
2022/12/18 04:10:16;;;;;;;40.90;27.13;;;;;;;-5.63;86.28;102581.28;5062391;28;20090;-66
2022/12/18 04:12:44;;;;;;;38.73;27.07;;;;;;;-5.68;86.49;102577.66;5056507;28;20114;-66
2022/12/18 04:15:11;;;;;;;40.13;25.97;;;;;;;-5.67;86.38;102585.47;5062269;28;20127;-66
2022/12/18 04:17:43;;;;;;;37.60;25.67;;;;;;;-5.69;86.22;102576.78;5051096;28;20074;-66
2022/12/18 04:20:09;;;;;;;41.63;26.40;;;;;;;-5.66;86.31;102576.88;5048639;28;20032;-66
2022/12/18 04:22:35;;;;;;;39.30;27.20;;;;;;;-5.72;86.04;102569.78;5048562;28;20033;-66
2022/12/18 04:25:01;;;;;;;39.97;26.47;;;;;;;-5.75;85.85;102569.69;5067983;28;20083;-66
2022/12/18 04:27:29;;;;;;;41.10;27.10;;;;;;;-5.74;86.57;102574.03;5052865;28;20036;-66
2022/12/18 04:29:55;;;;;;;40.53;27.87;;;;;;;-5.81;86.62;102571.22;5071194;28;20029;-66
2022/12/18 04:32:20;;;;;;;41.10;26.47;;;;;;;-5.77;86.59;102581.69;5068583;28;20399;-66
2022/12/18 04:34:46;;;;;;;43.03;27.13;;;;;;;-5.75;86.59;102584.34;5064945;28;20124;-66
2022/12/18 04:37:11;;;;;;;43.57;28.33;;;;;;;-5.70;86.37;102587.97;5057064;28;20044;-66
2022/12/18 04:39:36;;;;;;;44.17;25.27;;;;;;;-5.71;85.94;102594.88;5056847;28;20041;-66
2022/12/18 04:42:02;;;;;;;36.47;24.60;;;;;;;-5.75;86.19;102594.72;5066285;28;20029;-66
2022/12/18 04:44:30;;;;;;;39.10;25.47;;;;;;;-5.78;86.31;102594.63;5072271;28;20056;-66
2022/12/18 04:46:55;;;;;;;38.43;25.47;;;;;;;-5.77;86.58;102599.84;5054139;28;20052;-66
2022/12/18 04:49:21;;;;;;;43.17;27.60;;;;;;;-5.77;86.42;102611.91;5070356;28;20033;-66
2022/12/18 04:51:49;;;;;;;38.47;26.60;;;;;;;-5.75;86.22;102616.31;5049719;28;20033;-67
2022/12/18 04:54:20;;;;;;;38.97;26.10;;;;;;;-5.75;86.06;102615.44;5065847;28;20032;-66
2022/12/18 04:56:46;;;;;;;35.90;24.20;;;;;;;-5.73;86.57;102619.84;5072340;28;20033;-66
2022/12/18 04:59:12;;;;;;;38.47;25.60;;;;;;;-5.76;85.92;102616.28;5073323;28;20024;-66
2022/12/18 05:01:39;;;;;;;38.17;25.07;;;;;;;-5.78;86.35;102616.22;5039109;28;20021;-66
2022/12/18 05:04:05;;;;;;;40.07;25.00;;;;;;;-5.79;86.21;102611.00;5052605;28;20495;-66
2022/12/18 05:06:31;;;;;;;38.57;24.80;;;;;;;-5.75;85.85;102615.44;5065465;28;20036;-66
2022/12/18 05:08:56;;;;;;;36.53;24.53;;;;;;;-5.73;86.05;102612.06;5068386;28;20737;-66
2022/12/18 05:11:22;;;;;;;36.93;24.67;;;;;;;-5.69;85.47;102617.34;5053521;28;20490;-66
2022/12/18 05:13:47;;;;;;;39.00;25.33;;;;;;;-5.69;85.65;102617.34;5054010;28;20502;-66
2022/12/18 05:16:13;;;;;;;35.63;23.93;;;;;;;-5.64;85.24;102621.84;5052995;28;20057;-66
2022/12/18 05:18:39;;;;;;;36.20;24.23;;;;;;;-5.68;85.74;102614.78;5052499;28;20025;-66
2022/12/18 05:21:08;;;;;;;34.17;24.07;;;;;;;-5.65;85.26;102619.19;5053566;28;20373;-66
2022/12/18 05:23:37;;;;;;;35.17;23.23;;;;;;;-5.66;85.13;102613.16;5053606;28;20043;-65
2022/12/18 05:26:05;;;;;;;35.03;23.50;;;;;;;-5.67;85.48;102614.00;5054172;28;20033;-66
2022/12/18 05:28:32;;;;;;;34.70;24.53;;;;;;;-5.67;85.08;102620.88;5052786;28;20025;-66
2022/12/18 05:31:00;;;;;;;33.27;23.63;;;;;;;-5.63;85.46;102609.78;5053712;28;20033;-66
2022/12/18 05:33:27;;;;;;;35.67;23.47;;;;;;;-5.64;85.31;102605.44;5052017;28;20025;-66
2022/12/18 05:35:54;;;;;;;35.83;23.97;;;;;;;-5.68;85.32;102619.09;5053936;28;20029;-66
2022/12/18 05:38:21;;;;;;;30.80;22.23;;;;;;;-5.69;85.30;102609.59;5053255;28;20060;-66
2022/12/18 05:40:51;;;;;;;32.47;23.30;;;;;;;-5.65;85.09;102601.06;5053750;28;20375;-66
2022/12/18 05:43:17;;;;;;;35.22;22.38;;;;;;;-5.59;85.05;102604.75;5052524;28;20439;-66
2022/12/18 05:45:43;;;;;;;33.77;22.97;;;;;;;-5.58;85.47;102601.31;5053696;28;20036;-66
2022/12/18 05:48:11;;;;;;;36.07;24.53;;;;;;;-5.54;84.90;102597.97;5034085;28;20396;-66
2022/12/18 05:50:39;;;;;;;35.03;22.73;;;;;;;-5.53;84.99;102596.25;5052912;28;20037;-66
2022/12/18 05:53:04;;;;;;;35.33;22.87;;;;;;;-5.59;85.10;102596.97;5052541;28;20460;-66
2022/12/18 05:55:37;;;;;;;39.83;22.87;;;;;;;-5.64;84.91;102595.94;5035815;28;20127;-66
2022/12/18 05:58:07;;;;;;;36.30;22.70;;;;;;;-5.62;85.12;102588.19;5052109;28;20535;-66
2022/12/18 06:00:34;;;;;;;38.63;23.23;;;;;;;-5.66;85.24;102589.81;5051586;28;20477;-66
2022/12/18 06:03:00;;;;;;;34.17;22.77;;;;;;;-5.64;84.79;102587.28;5051857;28;20104;-66
2022/12/18 06:05:26;;;;;;;40.27;24.47;;;;;;;-5.68;85.02;102585.41;5051973;28;20059;-66
2022/12/18 06:07:52;;;;;;;34.50;22.53;;;;;;;-5.74;85.29;102574.03;5051504;28;20032;-65
2022/12/18 06:10:18;;;;;;;37.73;24.53;;;;;;;-5.74;85.07;102573.16;5052642;28;20060;-66
2022/12/18 06:12:43;;;;;;;35.97;22.77;;;;;;;-5.78;85.11;102587.72;5057632;28;20544;-65
2022/12/18 06:15:09;;;;;;;35.03;24.33;;;;;;;-5.78;85.00;102592.91;5053094;28;20052;-66
2022/12/18 06:17:35;;;;;;;37.63;23.27;;;;;;;-5.82;85.20;102598.81;5021611;28;20103;-66
2022/12/18 06:20:01;;;;;;;36.83;23.80;;;;;;;-5.79;85.11;102596.34;5031946;28;20384;-66
2022/12/18 06:22:27;;;;;;;31.30;22.57;;;;;;;-5.84;84.94;102597.88;5032888;28;20028;-66
2022/12/18 06:24:52;;;;;;;34.17;22.80;;;;;;;-5.86;85.30;102596.06;5049184;28;20035;-66
2022/12/18 06:27:17;;;;;;;30.40;21.90;;;;;;;-5.90;85.52;102599.41;5063684;28;20036;-66
2022/12/18 06:29:43;;;;;;;34.50;22.53;;;;;;;-5.92;85.28;102586.38;5053075;28;20043;-67
2022/12/18 06:32:08;;;;;;;36.33;22.80;;;;;;;-5.91;85.25;102601.13;5034886;28;20059;-66
2022/12/18 06:34:36;;;;;;;33.10;22.17;;;;;;;-5.96;85.20;102592.34;5051141;28;20498;-66
2022/12/18 06:37:02;;;;;;;34.00;22.73;;;;;;;-6.00;85.83;102588.78;5068604;28;20438;-66
2022/12/18 06:39:28;;;;;;;36.70;22.83;;;;;;;-5.95;85.82;102600.16;5065176;28;20032;-66
2022/12/18 06:41:53;;;;;;;38.17;22.63;;;;;;;-5.91;85.51;102584.69;5051283;28;20043;-66
2022/12/18 06:44:21;;;;;;;38.03;23.27;;;;;;;-5.89;85.70;102589.09;5034342;28;20551;-66
2022/12/18 06:46:47;;;;;;;33.13;23.40;;;;;;;-5.90;85.94;102581.28;5052810;28;20037;-66
2022/12/18 06:49:13;;;;;;;36.20;23.87;;;;;;;-5.88;85.88;102566.63;5050797;28;20079;-66
2022/12/18 06:51:38;;;;;;;36.90;23.57;;;;;;;-5.97;85.82;102573.34;5051976;28;20113;-66
2022/12/18 06:54:04;;;;;;;31.90;22.33;;;;;;;-5.96;86.29;102576.81;5050656;28;20029;-66
2022/12/18 06:56:30;;;;;;;36.33;22.57;;;;;;;-5.99;85.85;102572.41;5051068;28;20035;-66
2022/12/18 06:58:57;;;;;;;34.20;22.27;;;;;;;-6.00;85.90;102578.44;5051496;28;20048;-66
2022/12/18 07:01:25;;;;;;;30.47;22.93;;;;;;;-6.05;86.34;102579.09;5052279;28;20025;-66
2022/12/18 07:03:57;;;;;;;36.93;22.70;;;;;;;-6.05;86.37;102576.50;5051915;28;20424;-66
2022/12/18 07:06:24;;;;;;;37.40;24.60;;;;;;;-6.06;86.33;102575.63;5052164;28;20476;-66
2022/12/18 07:08:51;;;;;;;31.33;22.67;;;;;;;-6.04;86.54;102575.66;5051578;28;20063;-65
2022/12/18 07:11:18;;;;;;;33.33;22.57;;;;;;;-6.00;86.31;102559.38;5050043;28;20095;-67
2022/12/18 07:13:43;;;;;;;33.77;22.93;;;;;;;-5.98;86.34;102555.16;5050573;28;20017;-66
2022/12/18 07:16:15;;;;;;;34.73;23.47;;;;;;;-6.00;86.12;102543.84;5051838;28;20400;-66
2022/12/18 07:18:40;;;;;;;34.97;23.33;;;;;;;-6.04;86.69;102545.47;5051693;28;20056;-66
2022/12/18 07:21:08;;;;;;;33.53;23.53;;;;;;;-6.01;86.23;102531.75;5030248;28;20037;-66
2022/12/18 07:23:35;;;;;;;35.10;23.07;;;;;;;-5.97;86.46;102537.09;5037734;28;20306;-66
2022/12/18 07:26:05;;;;;;;34.93;24.47;;;;;;;-6.09;86.40;102510.75;5051348;28;20453;-66
2022/12/18 07:28:32;;;;;;;34.93;23.17;;;;;;;-6.05;86.39;102512.63;5051493;28;20025;-65
2022/12/18 07:30:58;;;;;;;36.80;24.77;;;;;;;-6.00;86.33;102512.78;5050322;28;20036;-66
2022/12/18 07:33:24;;;;;;;35.10;23.83;;;;;;;-5.99;86.69;102502.47;5051472;28;20029;-66
2022/12/18 07:35:50;;;;;;;35.43;23.60;;;;;;;-6.03;86.73;102503.22;5050331;28;20028;-65
2022/12/18 07:38:15;;;;;;;34.27;23.37;;;;;;;-6.04;86.99;102509.22;5049745;28;20036;-66
2022/12/18 07:40:41;;;;;;;33.83;23.70;;;;;;;-5.98;86.57;102506.81;5050036;28;20032;-66
2022/12/18 07:43:09;;;;;;;34.90;23.70;;;;;;;-5.95;86.75;102503.44;5050878;28;20363;-66
2022/12/18 07:45:34;;;;;;;37.40;24.00;;;;;;;-5.89;86.42;102487.19;5051563;28;20464;-66
2022/12/18 07:47:59;;;;;;;39.37;24.47;;;;;;;-5.90;86.35;102488.03;5050988;28;20029;-66
2022/12/18 07:50:26;;;;;;;35.83;24.90;;;;;;;-5.84;87.12;102480.44;5048495;28;20031;-66
2022/12/18 07:52:51;;;;;;;39.47;26.70;;;;;;;-5.86;86.51;102472.59;5068423;28;20028;-66
2022/12/18 07:55:16;;;;;;;35.57;25.60;;;;;;;-5.78;86.23;102472.84;5067830;28;20024;-66
2022/12/18 07:57:42;;;;;;;34.43;24.50;;;;;;;-5.80;86.45;102461.56;5068917;28;20020;-66
2022/12/18 08:00:08;;;;;;;45.50;30.57;;;;;;;-5.80;86.53;102462.44;5062208;28;20503;-66
2022/12/18 08:02:38;;;;;;;55.30;33.97;;;;;;;-5.84;86.75;102451.94;5050785;28;20021;-66
2022/12/18 08:05:05;;;;;;;68.53;42.25;;;;;;;-5.77;86.60;102470.28;5056641;28;20428;-66
2022/12/18 08:07:30;;;;;;;54.63;34.80;;;;;;;-5.76;86.91;102469.47;5051465;28;20098;-65
2022/12/18 08:09:56;;;;;;;75.57;43.00;;;;;;;-5.68;86.68;102486.94;5048707;28;20041;-65
2022/12/18 08:12:24;;;;;;;41.60;27.60;;;;;;;-5.66;86.77;102480.13;5052473;28;20456;-66
2022/12/18 08:14:49;;;;;;;39.17;26.80;;;;;;;-5.61;86.44;102475.97;5056693;28;20123;-65
2022/12/18 08:17:14;;;;;;;38.93;25.97;;;;;;;-5.56;86.23;102474.34;5059630;28;20179;-66
2022/12/18 08:19:40;;;;;;;37.47;25.27;;;;;;;-5.53;85.92;102477.03;5054758;28;20033;-66
2022/12/18 08:22:06;;;;;;;38.60;27.10;;;;;;;-5.48;86.08;102484.13;5053786;28;20430;-66
2022/12/18 08:24:32;;;;;;;47.03;28.53;;;;;;;-5.44;86.72;102490.28;5036504;28;20407;-66
2022/12/18 08:27:00;;;;;;;45.53;30.17;;;;;;;-5.43;86.24;102492.03;5054736;28;20116;-66
2022/12/18 08:29:28;;;;;;;40.13;26.83;;;;;;;-5.37;86.30;102481.84;5053306;28;20033;-66
2022/12/18 08:31:54;;;;;;;43.67;27.83;;;;;;;-5.33;85.81;102477.63;5053254;28;20424;-66
2022/12/18 08:34:19;;;;;;;37.73;26.20;;;;;;;-5.31;85.78;102483.72;5043726;28;20079;-66
2022/12/18 08:36:45;;;;;;;36.93;25.03;;;;;;;-5.28;85.69;102489.88;5054876;28;20450;-66
2022/12/18 08:39:10;;;;;;;37.73;25.60;;;;;;;-5.23;85.38;102487.44;5053983;28;20360;-66
2022/12/18 08:41:36;;;;;;;44.07;27.20;;;;;;;-5.19;85.46;102478.03;5054565;28;20104;-66
2022/12/18 08:46:45;;;;;;;40.83;25.13;;;;;;;-5.18;85.06;102466.78;5039674;28;20071;-66
2022/12/18 08:49:13;;;;;;;40.27;25.43;;;;;;;-5.13;84.64;102462.63;5048654;28;20036;-66
2022/12/18 08:51:41;;;;;;;53.10;32.60;;;;;;;-5.12;84.60;102460.06;5050018;28;20029;-66
2022/12/18 08:54:07;;;;;;;41.23;27.33;;;;;;;-5.17;84.67;102450.41;5052308;28;20068;-66
2022/12/18 08:56:33;;;;;;;48.77;32.07;;;;;;;-5.10;84.45;102465.31;5054232;28;20107;-65
2022/12/18 08:58:59;;;;;;;51.63;33.50;;;;;;;-5.00;84.33;102471.59;5054051;28;20036;-66
2022/12/18 09:01:25;;;;;;;46.70;31.97;;;;;;;-4.98;84.73;102455.25;5050337;28;20028;-66
2022/12/18 09:03:51;;;;;;;38.80;26.17;;;;;;;-4.96;83.96;102452.72;5050339;28;20044;-66
2022/12/18 09:06:18;;;;;;;38.37;26.47;;;;;;;-4.92;84.16;102457.13;5055363;28;20031;-66
2022/12/18 09:08:44;;;;;;;37.50;27.07;;;;;;;-4.90;83.95;102458.94;5053416;28;20033;-66
2022/12/18 09:11:18;;;;;;;40.33;27.93;;;;;;;-4.84;83.96;102484.16;5039096;28;20020;-66
2022/12/18 09:13:46;;;;;;;46.40;31.77;;;;;;;-4.80;83.81;102481.69;5054167;28;20124;-66
2022/12/18 09:16:12;;;;;;;47.30;33.60;;;;;;;-4.73;84.29;102489.66;5054096;28;20059;-66
2022/12/18 09:18:38;;;;;;;40.20;26.30;;;;;;;-4.76;83.66;102482.66;5031529;28;20115;-66
2022/12/18 09:21:18;;;;;;;53.93;36.03;;;;;;;-4.71;83.87;102485.34;5052392;28;20098;-66
2022/12/18 09:23:45;;;;;;;42.42;29.45;;;;;;;-4.62;83.63;102490.78;5041498;28;20017;-67
2022/12/18 09:26:14;;;;;;;59.70;37.30;;;;;;;-4.60;83.50;102492.59;5053818;28;20413;-66
2022/12/18 09:28:39;;;;;;;72.10;44.73;;;;;;;-4.54;83.46;102483.22;5052518;28;20116;-66
2022/12/18 09:31:10;;;;;;;44.17;29.97;;;;;;;-4.45;82.83;102473.06;5051439;28;20108;-66
2022/12/18 09:33:38;;;;;;;44.77;30.67;;;;;;;-4.46;82.73;102464.38;5051018;28;20032;-66
2022/12/18 09:36:06;;;;;;;38.37;25.87;;;;;;;-4.41;82.59;102459.28;5055941;28;20446;-66
2022/12/18 09:38:33;;;;;;;43.27;28.23;;;;;;;-4.43;82.00;102458.41;5072969;28;20025;-66
2022/12/18 09:41:19;;;;;;;69.23;39.30;;;;;;;-4.35;82.49;102460.34;5057409;28;20070;-66
2022/12/18 09:43:50;;;;;;;57.93;34.53;;;;;;;-4.33;81.73;102460.34;5053785;28;20056;-66
2022/12/18 09:46:36;;;;;;;78.00;47.50;;;;;;;-4.27;82.35;102452.72;5050987;28;20313;-66
2022/12/18 09:49:07;;;;;;;56.70;34.93;;;;;;;-4.29;82.01;102444.03;5049539;28;20028;-66
2022/12/18 09:52:00;;;;;;;49.33;33.53;;;;;;;-4.27;81.96;102431.06;5069145;28;20020;-66
2022/12/18 09:54:35;;;;;;;83.63;48.13;;;;;;;-4.15;81.98;102427.06;5071144;28;20028;-66
2022/12/18 09:57:01;;;;;;;52.10;34.03;;;;;;;-4.11;81.80;102426.28;5064697;28;20330;-66
2022/12/18 09:59:34;;;;;;;49.20;32.30;;;;;;;-4.06;81.97;102425.47;5051904;28;20024;-66
2022/12/18 10:02:07;;;;;;;54.70;35.70;;;;;;;-3.98;82.47;102434.34;5048114;28;20075;-66
2022/12/18 10:04:32;;;;;;;46.77;30.30;;;;;;;-3.87;81.64;102440.66;5046992;28;20060;-65
2022/12/18 10:07:33;;;;;;;57.13;35.83;;;;;;;-3.80;81.42;102426.06;5041909;28;20021;-66
2022/12/18 10:10:31;;;;;;;49.13;32.58;;;;;;;-3.70;81.72;102438.44;5045014;28;20087;-65
2022/12/18 10:13:25;;;;;;;62.10;39.10;;;;;;;-3.69;80.99;102440.16;5044848;28;20429;-65
2022/12/18 10:16:15;;;;;;;62.90;38.83;;;;;;;-3.60;81.05;102442.09;5051249;28;20125;-66
2022/12/18 10:18:56;;;;;;;46.38;30.63;;;;;;;-3.55;80.49;102441.34;5048699;28;20550;-66
2022/12/18 10:22:02;;;;;;;44.43;29.73;;;;;;;-3.51;80.90;102443.16;5048073;28;20035;-67
2022/12/18 10:24:39;;;;;;;44.43;29.27;;;;;;;-3.50;80.72;102431.91;5051199;28;20472;-66
2022/12/18 10:27:25;;;;;;;43.40;29.03;;;;;;;-3.39;80.50;102426.03;5052514;28;20378;-66
2022/12/18 10:29:50;;;;;;;38.77;27.90;;;;;;;-3.35;80.05;102422.63;5050700;28;20029;-66
2022/12/18 10:32:27;;;;;;;38.13;27.20;;;;;;;-3.39;79.09;102413.03;5051210;28;20511;-66
2022/12/18 10:34:57;;;;;;;63.80;43.77;;;;;;;-3.35;79.24;102404.44;5050685;28;20025;-66
2022/12/18 10:37:26;;;;;;;144.40;69.10;;;;;;;-3.34;79.83;102386.28;5064524;28;20024;-66
2022/12/18 10:40:06;;;;;;;105.17;53.93;;;;;;;-3.22;79.58;102389.09;5050679;28;20025;-66
2022/12/18 10:42:35;;;;;;;85.40;47.40;;;;;;;-3.18;79.90;102396.97;5051918;28;20290;-66
2022/12/18 10:45:05;;;;;;;62.50;37.43;;;;;;;-3.19;80.03;102390.88;5052299;28;20021;-66
2022/12/18 10:47:32;;;;;;;;;;;;;;;-3.10;80.25;102384.97;5052934;28;20054;-67
2022/12/18 10:49:58;;;;;;;106.33;56.53;;;;;;;-3.09;79.58;102381.50;5051686;28;19959;-67
2022/12/18 10:52:27;;;;;;;57.07;34.73;;;;;;;-3.05;79.73;102379.00;5016278;28;20032;-66
2022/12/18 10:55:00;;;;;;;43.23;31.10;;;;;;;-3.04;79.34;102375.53;5040414;28;20115;-66
2022/12/18 10:57:41;;;;;;;55.57;36.30;;;;;;;-3.01;79.17;102372.13;5033447;28;20080;-67
2022/12/18 11:00:29;;;;;;;46.47;34.57;;;;;;;-3.00;79.66;102361.75;5050758;28;20024;-67
2022/12/18 11:02:56;;;;;;;42.70;29.67;;;;;;;-3.02;79.51;102358.25;5050117;28;20021;-67
2022/12/18 11:05:26;;;;;;;40.27;29.93;;;;;;;-2.98;79.03;102354.81;5048033;28;20392;-67
2022/12/18 11:07:53;;;;;;;68.93;45.00;;;;;;;-3.00;79.34;102353.03;5050156;28;20468;-65
2022/12/18 11:10:21;;;;;;;99.17;55.80;;;;;;;-2.93;79.33;102360.13;5048635;28;20094;-66
2022/12/18 11:12:47;;;;;;;97.30;52.07;;;;;;;-2.89;79.38;102359.31;5056972;28;20020;-66
2022/12/18 11:15:29;;;;;;;74.20;47.03;;;;;;;-2.92;79.24;102364.47;5071721;28;20400;-66
2022/12/18 11:18:01;;;;;;;83.77;52.40;;;;;;;-2.88;79.45;102365.38;5062176;28;20049;-67
2022/12/18 11:20:35;;;;;;;71.97;46.77;;;;;;;-2.85;79.31;102363.75;5053987;28;20064;-66
2022/12/18 11:23:04;;;;;;;80.53;52.73;;;;;;;-2.92;79.15;102345.38;5050135;28;20013;-66
2022/12/18 11:25:32;;;;;;;52.10;36.57;;;;;;;-2.81;79.16;102331.69;5051681;28;20450;-67
2022/12/18 11:28:22;;;;;;;45.23;32.17;;;;;;;-2.75;79.36;102330.91;5050929;28;20477;-66